Paragould, Arkansas
Current Conditions -  °F | °C
As of 9:15 AM on Friday 19 Dec 2014 (Local Time) from K4M9 Reporting Station
Haze Haze  
Wind Chill: 32°   Ceiling: Unl
Heat Index: 37°   Visibility: 5mi
Dew Point: 32°   Wind: 7mph
Humidity: 81%   Direction: 50°NE
Pressure: 30.32"   Gusts: NA
Location:  36.06°N, 90.49°W
Report Text: K4M9 191515Z AUTO 05006KT 5SM BR SCT012 03/00 A3032 RMK AO2
Loading
Personal Weather Stations






























Interactive Weather Map New forecast layout! Learn more

10-Day Weather Forecast

Advertisements
Track Severe Weather on mobile